sensor_id;sensor_type;location;lat;lon;timestamp;pressure;altitude;pressure_sealevel;temperature;humidity
48053;BME280;33824;51.600;5.718;2023-03-13T00:00:15;100118.53;;;11.25;91.05
48053;BME280;33824;51.600;5.718;2023-03-13T00:03:01;100110.94;;;11.22;91.44
48053;BME280;33824;51.600;5.718;2023-03-13T00:05:27;100104.56;;;11.23;91.45
48053;BME280;33824;51.600;5.718;2023-03-13T00:07:52;100094.28;;;11.20;91.81
48053;BME280;33824;51.600;5.718;2023-03-13T00:10:18;100097.97;;;11.19;92.25
48053;BME280;33824;51.600;5.718;2023-03-13T00:12:43;100086.28;;;11.20;92.18
48053;BME280;33824;51.600;5.718;2023-03-13T00:15:09;100082.56;;;11.15;92.90
48053;BME280;33824;51.600;5.718;2023-03-13T00:17:35;100065.91;;;11.13;93.27
48053;BME280;33824;51.600;5.718;2023-03-13T00:20:00;100069.41;;;11.13;93.61
48053;BME280;33824;51.600;5.718;2023-03-13T00:22:26;100057.66;;;11.07;94.16
48053;BME280;33824;51.600;5.718;2023-03-13T00:24:51;100058.28;;;11.03;94.67
48053;BME280;33824;51.600;5.718;2023-03-13T00:27:17;100056.19;;;10.98;95.44
48053;BME280;33824;51.600;5.718;2023-03-13T00:29:42;100048.94;;;10.92;96.54
48053;BME280;33824;51.600;5.718;2023-03-13T00:32:08;100043.56;;;10.86;97.36
48053;BME280;33824;51.600;5.718;2023-03-13T00:34:33;100030.81;;;10.81;98.05
48053;BME280;33824;51.600;5.718;2023-03-13T00:36:59;100028.94;;;10.75;99.35
48053;BME280;33824;51.600;5.718;2023-03-13T00:39:24;100028.91;;;10.69;100.00
48053;BME280;33824;51.600;5.718;2023-03-13T00:41:50;100022.50;;;10.63;100.00
48053;BME280;33824;51.600;5.718;2023-03-13T00:44:15;100019.66;;;10.65;100.00
48053;BME280;33824;51.600;5.718;2023-03-13T00:46:41;100014.25;;;10.58;100.00
48053;BME280;33824;51.600;5.718;2023-03-13T00:49:06;100008.91;;;10.58;100.00
48053;BME280;33824;51.600;5.718;2023-03-13T00:51:33;100001.75;;;10.58;100.00
48053;BME280;33824;51.600;5.718;2023-03-13T00:54:00;100002.97;;;10.56;100.00
48053;BME280;33824;51.600;5.718;2023-03-13T00:56:26;99983.31;;;10.57;100.00
48053;BME280;33824;51.600;5.718;2023-03-13T00:58:52;99983.88;;;10.52;100.00
48053;BME280;33824;51.600;5.718;2023-03-13T01:01:24;99979.69;;;10.43;100.00
48053;BME280;33824;51.600;5.718;2023-03-13T01:03:52;99981.19;;;10.46;100.00
48053;BME280;33824;51.600;5.718;2023-03-13T01:06:20;99969.72;;;10.52;100.00
48053;BME280;33824;51.600;5.718;2023-03-13T01:08:47;99964.56;;;10.50;100.00
48053;BME280;33824;51.600;5.718;2023-03-13T01:11:15;99959.25;;;10.50;100.00
48053;BME280;33824;51.600;5.718;2023-03-13T01:13:42;99952.06;;;10.51;100.00
48053;BME280;33824;51.600;5.718;2023-03-13T01:16:14;99946.75;;;10.51;100.00
48053;BME280;33824;51.600;5.718;2023-03-13T01:18:43;99940.41;;;10.52;100.00
48053;BME280;33824;51.600;5.718;2023-03-13T01:21:09;99934.06;;;10.53;100.00
48053;BME280;33824;51.600;5.718;2023-03-13T01:23:35;99917.66;;;10.49;100.00
48053;BME280;33824;51.600;5.718;2023-03-13T01:26:06;99922.31;;;10.47;100.00
48053;BME280;33824;51.600;5.718;2023-03-13T01:28:32;99912.75;;;10.53;100.00
48053;BME280;33824;51.600;5.718;2023-03-13T01:30:59;99905.31;;;10.48;100.00
48053;BME280;33824;51.600;5.718;2023-03-13T01:33:24;99909.03;;;10.54;100.00
48053;BME280;33824;51.600;5.718;2023-03-13T01:35:50;99902.69;;;10.55;100.00
48053;BME280;33824;51.600;5.718;2023-03-13T01:38:15;99884.28;;;10.60;100.00
48053;BME280;33824;51.600;5.718;2023-03-13T01:40:46;99888.34;;;10.56;100.00
48053;BME280;33824;51.600;5.718;2023-03-13T01:43:18;99884.84;;;10.49;100.00
48053;BME280;33824;51.600;5.718;2023-03-13T01:51:11;99870.72;;;10.62;100.00
48053;BME280;33824;51.600;5.718;2023-03-13T01:53:40;99871.59;;;10.69;100.00
48053;BME280;33824;51.600;5.718;2023-03-13T01:56:13;99856.41;;;10.69;100.00
48053;BME280;33824;51.600;5.718;2023-03-13T01:58:41;99850.91;;;10.77;100.00
48053;BME280;33824;51.600;5.718;2023-03-13T02:01:07;99844.38;;;10.80;100.00
48053;BME280;33824;51.600;5.718;2023-03-13T02:03:35;99835.97;;;10.83;100.00
48053;BME280;33824;51.600;5.718;2023-03-13T02:06:01;99830.03;;;10.87;100.00
48053;BME280;33824;51.600;5.718;2023-03-13T02:08:32;99823.66;;;10.88;100.00
48053;BME280;33824;51.600;5.718;2023-03-13T02:11:17;99809.50;;;10.81;100.00
48053;BME280;33824;51.600;5.718;2023-03-13T02:13:44;99827.19;;;10.95;100.00
48053;BME280;33824;51.600;5.718;2023-03-13T02:16:10;99804.84;;;11.03;100.00
48053;BME280;33824;51.600;5.718;2023-03-13T02:18:36;99801.56;;;11.07;100.00
48053;BME280;33824;51.600;5.718;2023-03-13T02:21:18;99791.72;;;11.01;100.00
48053;BME280;33824;51.600;5.718;2023-03-13T02:24:26;99787.63;;;10.99;100.00
48053;BME280;33824;51.600;5.718;2023-03-13T02:26:54;99783.94;;;11.20;100.00
48053;BME280;33824;51.600;5.718;2023-03-13T02:29:20;99771.63;;;11.25;100.00
48053;BME280;33824;51.600;5.718;2023-03-13T02:31:47;99759.31;;;11.24;100.00
48053;BME280;33824;51.600;5.718;2023-03-13T02:34:18;99738.56;;;11.26;100.00
48053;BME280;33824;51.600;5.718;2023-03-13T02:36:45;99716.63;;;11.31;100.00
48053;BME280;33824;51.600;5.718;2023-03-13T02:39:12;99727.31;;;11.37;100.00
48053;BME280;33824;51.600;5.718;2023-03-13T02:41:41;99734.91;;;11.40;100.00
48053;BME280;33824;51.600;5.718;2023-03-13T02:44:08;99744.53;;;11.41;100.00
48053;BME280;33824;51.600;5.718;2023-03-13T02:46:48;99734.47;;;11.30;100.00
48053;BME280;33824;51.600;5.718;2023-03-13T02:49:25;99729.75;;;11.39;100.00
48053;BME280;33824;51.600;5.718;2023-03-13T02:51:52;99729.34;;;11.48;100.00
48053;BME280;33824;51.600;5.718;2023-03-13T02:54:21;99737.13;;;11.50;100.00
48053;BME280;33824;51.600;5.718;2023-03-13T02:56:51;99730.78;;;11.51;100.00
48053;BME280;33824;51.600;5.718;2023-03-13T02:59:20;99724.59;;;11.57;100.00
48053;BME280;33824;51.600;5.718;2023-03-13T03:01:45;99733.84;;;11.61;100.00
48053;BME280;33824;51.600;5.718;2023-03-13T03:04:11;99734.06;;;11.60;100.00
48053;BME280;33824;51.600;5.718;2023-03-13T03:06:36;99731.16;;;11.61;100.00
48053;BME280;33824;51.600;5.718;2023-03-13T03:09:03;99742.88;;;11.67;100.00
48053;BME280;33824;51.600;5.718;2023-03-13T03:11:28;99733.44;;;11.71;100.00
48053;BME280;33824;51.600;5.718;2023-03-13T03:13:54;99732.59;;;11.70;100.00
48053;BME280;33824;51.600;5.718;2023-03-13T03:16:19;99745.78;;;11.72;100.00
48053;BME280;33824;51.600;5.718;2023-03-13T03:18:45;99745.38;;;11.75;100.00
48053;BME280;33824;51.600;5.718;2023-03-13T03:21:11;99749.47;;;11.77;100.00
48053;BME280;33824;51.600;5.718;2023-03-13T03:23:37;99732.41;;;11.78;100.00
48053;BME280;33824;51.600;5.718;2023-03-13T03:26:04;99730.16;;;11.82;100.00
48053;BME280;33824;51.600;5.718;2023-03-13T03:28:30;99712.88;;;11.84;100.00
48053;BME280;33824;51.600;5.718;2023-03-13T03:30:55;99716.38;;;11.85;100.00
48053;BME280;33824;51.600;5.718;2023-03-13T03:33:22;99709.97;;;11.92;100.00
48053;BME280;33824;51.600;5.718;2023-03-13T03:35:49;99717.16;;;11.92;100.00
48053;BME280;33824;51.600;5.718;2023-03-13T03:38:15;99719.00;;;11.91;100.00
48053;BME280;33824;51.600;5.718;2023-03-13T03:40:41;99710.41;;;11.89;100.00
48053;BME280;33824;51.600;5.718;2023-03-13T03:43:06;99698.44;;;11.98;100.00
48053;BME280;33824;51.600;5.718;2023-03-13T03:45:32;99705.22;;;12.01;100.00
48053;BME280;33824;51.600;5.718;2023-03-13T03:47:57;99701.53;;;12.02;100.00
48053;BME280;33824;51.600;5.718;2023-03-13T03:50:26;99703.38;;;12.01;100.00
48053;BME280;33824;51.600;5.718;2023-03-13T03:52:52;99694.72;;;12.06;100.00
48053;BME280;33824;51.600;5.718;2023-03-13T03:55:18;99711.97;;;12.10;100.00
48053;BME280;33824;51.600;5.718;2023-03-13T03:57:44;99699.88;;;12.08;100.00
48053;BME280;33824;51.600;5.718;2023-03-13T04:00:10;99706.63;;;12.10;100.00
48053;BME280;33824;51.600;5.718;2023-03-13T04:02:38;99710.75;;;12.13;100.00
48053;BME280;33824;51.600;5.718;2023-03-13T04:05:04;99711.13;;;12.16;100.00
48053;BME280;33824;51.600;5.718;2023-03-13T04:07:29;99709.28;;;12.17;100.00
48053;BME280;33824;51.600;5.718;2023-03-13T04:09:55;99700.84;;;12.20;100.00
48053;BME280;33824;51.600;5.718;2023-03-13T04:12:21;99699.59;;;12.22;100.00
48053;BME280;33824;51.600;5.718;2023-03-13T04:14:46;99691.97;;;12.26;100.00
48053;BME280;33824;51.600;5.718;2023-03-13T04:17:12;99707.38;;;12.30;100.00
48053;BME280;33824;51.600;5.718;2023-03-13T04:19:38;99684.53;;;12.34;100.00
48053;BME280;33824;51.600;5.718;2023-03-13T04:22:03;99689.44;;;12.37;100.00
48053;BME280;33824;51.600;5.718;2023-03-13T04:24:29;99686.56;;;12.39;100.00
48053;BME280;33824;51.600;5.718;2023-03-13T04:26:54;99681.81;;;12.41;100.00
48053;BME280;33824;51.600;5.718;2023-03-13T04:29:20;99688.19;;;12.46;100.00
48053;BME280;33824;51.600;5.718;2023-03-13T04:31:46;99678.69;;;12.50;100.00
48053;BME280;33824;51.600;5.718;2023-03-13T04:34:11;99679.47;;;12.58;100.00
48053;BME280;33824;51.600;5.718;2023-03-13T04:36:37;99655.59;;;12.63;100.00
48053;BME280;33824;51.600;5.718;2023-03-13T04:39:03;99660.06;;;12.69;100.00
48053;BME280;33824;51.600;5.718;2023-03-13T04:41:28;99637.41;;;12.71;100.00
48053;BME280;33824;51.600;5.718;2023-03-13T04:43:54;99655.28;;;12.77;100.00
48053;BME280;33824;51.600;5.718;2023-03-13T04:46:19;99643.94;;;12.82;100.00
48053;BME280;33824;51.600;5.718;2023-03-13T04:48:45;99640.00;;;12.84;100.00
48053;BME280;33824;51.600;5.718;2023-03-13T04:51:11;99632.16;;;12.89;100.00
48053;BME280;33824;51.600;5.718;2023-03-13T04:53:37;99633.94;;;12.95;100.00
48053;BME280;33824;51.600;5.718;2023-03-13T04:56:03;99637.44;;;12.96;100.00
48053;BME280;33824;51.600;5.718;2023-03-13T04:58:29;99626.09;;;13.01;100.00
48053;BME280;33824;51.600;5.718;2023-03-13T05:00:55;99625.00;;;13.08;100.00
48053;BME280;33824;51.600;5.718;2023-03-13T05:03:21;99625.81;;;13.09;100.00
48053;BME280;33824;51.600;5.718;2023-03-13T05:05:47;99617.78;;;13.09;100.00
48053;BME280;33824;51.600;5.718;2023-03-13T05:08:13;99618.97;;;13.13;100.00
48053;BME280;33824;51.600;5.718;2023-03-13T05:10:41;99625.78;;;13.15;100.00
48053;BME280;33824;51.600;5.718;2023-03-13T05:13:06;99616.72;;;13.16;100.00
48053;BME280;33824;51.600;5.718;2023-03-13T05:15:35;99615.00;;;13.22;100.00
48053;BME280;33824;51.600;5.718;2023-03-13T05:18:00;99605.28;;;13.27;100.00
48053;BME280;33824;51.600;5.718;2023-03-13T05:20:26;99600.50;;;13.29;100.00
48053;BME280;33824;51.600;5.718;2023-03-13T05:22:51;99602.38;;;13.29;100.00
48053;BME280;33824;51.600;5.718;2023-03-13T05:25:17;99600.50;;;13.29;100.00
48053;BME280;33824;51.600;5.718;2023-03-13T05:27:44;99583.25;;;13.25;100.00
48053;BME280;33824;51.600;5.718;2023-03-13T05:30:10;99605.41;;;13.32;100.00
48053;BME280;33824;51.600;5.718;2023-03-13T05:32:36;99605.13;;;13.40;100.00
48053;BME280;33824;51.600;5.718;2023-03-13T05:35:01;99593.16;;;13.43;100.00
48053;BME280;33824;51.600;5.718;2023-03-13T05:37:27;99595.03;;;13.42;100.00
48053;BME280;33824;51.600;5.718;2023-03-13T05:39:52;99587.38;;;13.46;100.00
48053;BME280;33824;51.600;5.718;2023-03-13T05:42:18;99592.47;;;13.48;100.00
48053;BME280;33824;51.600;5.718;2023-03-13T05:44:43;99597.84;;;13.48;100.00
48053;BME280;33824;51.600;5.718;2023-03-13T05:47:09;99592.44;;;13.54;100.00
48053;BME280;33824;51.600;5.718;2023-03-13T05:49:36;99605.59;;;13.56;100.00
48053;BME280;33824;51.600;5.718;2023-03-13T05:52:02;99609.25;;;13.61;100.00
48053;BME280;33824;51.600;5.718;2023-03-13T05:54:27;99609.00;;;13.63;100.00
48053;BME280;33824;51.600;5.718;2023-03-13T05:56:53;99596.44;;;13.63;100.00
48053;BME280;33824;51.600;5.718;2023-03-13T05:59:18;99597.31;;;13.75;100.00
48053;BME280;33824;51.600;5.718;2023-03-13T06:01:44;99588.31;;;13.70;100.00
48053;BME280;33824;51.600;5.718;2023-03-13T06:04:09;99602.09;;;13.73;100.00
48053;BME280;33824;51.600;5.718;2023-03-13T06:06:35;99596.03;;;13.78;100.00
48053;BME280;33824;51.600;5.718;2023-03-13T06:09:01;99598.06;;;13.82;100.00
48053;BME280;33824;51.600;5.718;2023-03-13T06:11:26;99601.78;;;13.81;100.00
48053;BME280;33824;51.600;5.718;2023-03-13T06:13:52;99602.97;;;13.85;99.74
48053;BME280;33824;51.600;5.718;2023-03-13T06:16:18;99599.63;;;13.90;98.06
48053;BME280;33824;51.600;5.718;2023-03-13T06:18:44;99591.94;;;13.93;97.71
48053;BME280;33824;51.600;5.718;2023-03-13T06:21:09;99602.19;;;13.97;97.97
48053;BME280;33824;51.600;5.718;2023-03-13T06:23:35;99593.59;;;13.94;97.82
48053;BME280;33824;51.600;5.718;2023-03-13T06:26:01;99602.66;;;13.93;97.54
48053;BME280;33824;51.600;5.718;2023-03-13T06:28:27;99597.44;;;13.99;97.08
48053;BME280;33824;51.600;5.718;2023-03-13T06:30:52;99602.97;;;14.04;96.98
48053;BME280;33824;51.600;5.718;2023-03-13T06:33:18;99586.88;;;14.04;96.25
48053;BME280;33824;51.600;5.718;2023-03-13T06:35:43;99588.84;;;14.08;95.80
48053;BME280;33824;51.600;5.718;2023-03-13T06:38:09;99586.63;;;14.05;95.56
48053;BME280;33824;51.600;5.718;2023-03-13T06:40:35;99589.91;;;14.07;95.64
48053;BME280;33824;51.600;5.718;2023-03-13T06:43:01;99578.94;;;14.09;95.25
48053;BME280;33824;51.600;5.718;2023-03-13T06:45:26;99595.19;;;14.14;95.14
48053;BME280;33824;51.600;5.718;2023-03-13T06:47:52;99575.03;;;14.11;94.81
48053;BME280;33824;51.600;5.718;2023-03-13T06:50:18;99586.69;;;14.17;94.19
48053;BME280;33824;51.600;5.718;2023-03-13T06:52:45;99582.72;;;14.19;93.74
48053;BME280;33824;51.600;5.718;2023-03-13T06:55:11;99573.41;;;14.22;93.53
48053;BME280;33824;51.600;5.718;2023-03-13T06:57:37;99587.88;;;14.21;93.56
48053;BME280;33824;51.600;5.718;2023-03-13T07:00:03;99583.31;;;14.21;93.25
48053;BME280;33824;51.600;5.718;2023-03-13T07:02:31;99593.44;;;14.19;93.25
48053;BME280;33824;51.600;5.718;2023-03-13T07:04:56;99597.31;;;14.23;92.58
48053;BME280;33824;51.600;5.718;2023-03-13T07:07:22;99577.41;;;14.31;92.59
48053;BME280;33824;51.600;5.718;2023-03-13T07:09:47;99596.88;;;14.26;92.77
48053;BME280;33824;51.600;5.718;2023-03-13T07:12:13;99585.69;;;14.29;92.57
48053;BME280;33824;51.600;5.718;2023-03-13T07:14:38;99572.63;;;14.33;91.40
48053;BME280;33824;51.600;5.718;2023-03-13T07:17:07;99575.31;;;14.33;91.56
48053;BME280;33824;51.600;5.718;2023-03-13T07:19:32;99564.78;;;14.38;92.02
48053;BME280;33824;51.600;5.718;2023-03-13T07:21:58;99569.75;;;14.34;91.77
48053;BME280;33824;51.600;5.718;2023-03-13T07:24:23;99570.25;;;14.43;91.42
48053;BME280;33824;51.600;5.718;2023-03-13T07:26:49;99586.31;;;14.43;90.85
48053;BME280;33824;51.600;5.718;2023-03-13T07:29:14;99569.91;;;14.51;91.04
48053;BME280;33824;51.600;5.718;2023-03-13T07:31:40;99551.97;;;14.52;90.70
48053;BME280;33824;51.600;5.718;2023-03-13T07:34:07;99573.31;;;14.58;90.79
48053;BME280;33824;51.600;5.718;2023-03-13T07:36:33;99573.56;;;14.57;90.20
48053;BME280;33824;51.600;5.718;2023-03-13T07:38:59;99573.91;;;14.60;90.65
48053;BME280;33824;51.600;5.718;2023-03-13T07:41:25;99567.13;;;14.58;90.75
48053;BME280;33824;51.600;5.718;2023-03-13T07:43:50;99584.63;;;14.60;90.84
48053;BME280;33824;51.600;5.718;2023-03-13T07:46:17;99581.03;;;14.66;89.75
48053;BME280;33824;51.600;5.718;2023-03-13T07:48:44;99566.78;;;14.66;90.28
48053;BME280;33824;51.600;5.718;2023-03-13T07:51:18;99579.28;;;14.60;89.80
48053;BME280;33824;51.600;5.718;2023-03-13T07:53:45;99568.56;;;14.72;89.75
48053;BME280;33824;51.600;5.718;2023-03-13T07:56:16;99570.41;;;14.71;89.73
48053;BME280;33824;51.600;5.718;2023-03-13T07:58:43;99568.56;;;14.72;89.94
48053;BME280;33824;51.600;5.718;2023-03-13T08:01:09;99569.13;;;14.74;89.41
48053;BME280;33824;51.600;5.718;2023-03-13T08:03:35;99581.38;;;14.70;89.46
48053;BME280;33824;51.600;5.718;2023-03-13T08:06:05;99569.94;;;14.63;90.05
48053;BME280;33824;51.600;5.718;2023-03-13T08:08:31;99563.53;;;14.64;90.62
48053;BME280;33824;51.600;5.718;2023-03-13T08:11:01;99580.16;;;14.54;90.92
48053;BME280;33824;51.600;5.718;2023-03-13T08:13:27;99558.25;;;14.69;90.14
48053;BME280;33824;51.600;5.718;2023-03-13T08:16:01;99563.97;;;14.72;90.00
48053;BME280;33824;51.600;5.718;2023-03-13T08:18:27;99559.94;;;14.93;90.31
48053;BME280;33824;51.600;5.718;2023-03-13T08:20:52;99562.97;;;14.97;89.57
48053;BME280;33824;51.600;5.718;2023-03-13T08:23:18;99551.75;;;15.11;89.08
48053;BME280;33824;51.600;5.718;2023-03-13T08:25:43;99538.56;;;15.21;88.46
48053;BME280;33824;51.600;5.718;2023-03-13T08:28:09;99544.72;;;15.22;87.99
48053;BME280;33824;51.600;5.718;2023-03-13T08:30:35;99539.75;;;15.25;87.74
48053;BME280;33824;51.600;5.718;2023-03-13T08:33:01;99536.56;;;15.28;87.77
48053;BME280;33824;51.600;5.718;2023-03-13T08:35:29;99533.63;;;15.30;87.05
48053;BME280;33824;51.600;5.718;2023-03-13T08:37:54;99537.97;;;15.31;87.35
48053;BME280;33824;51.600;5.718;2023-03-13T08:40:20;99534.25;;;15.20;88.28
48053;BME280;33824;51.600;5.718;2023-03-13T08:42:45;99535.28;;;15.31;88.11
48053;BME280;33824;51.600;5.718;2023-03-13T08:45:11;99551.59;;;15.29;87.92
48053;BME280;33824;51.600;5.718;2023-03-13T08:47:36;99530.72;;;15.31;86.97
48053;BME280;33824;51.600;5.718;2023-03-13T08:50:03;99539.34;;;15.33;86.63
48053;BME280;33824;51.600;5.718;2023-03-13T08:52:28;99542.75;;;15.41;86.16
48053;BME280;33824;51.600;5.718;2023-03-13T08:54:54;99515.41;;;15.44;84.82
48053;BME280;33824;51.600;5.718;2023-03-13T08:57:19;99506.63;;;15.48;85.21
48053;BME280;33824;51.600;5.718;2023-03-13T08:59:45;99476.16;;;15.54;83.54
48053;BME280;33824;51.600;5.718;2023-03-13T09:02:10;99521.13;;;15.59;83.17
48053;BME280;33824;51.600;5.718;2023-03-13T09:04:36;99524.38;;;15.61;82.65
48053;BME280;33824;51.600;5.718;2023-03-13T09:07:02;99497.16;;;15.57;83.13
48053;BME280;33824;51.600;5.718;2023-03-13T09:09:27;99520.06;;;15.60;82.93
48053;BME280;33824;51.600;5.718;2023-03-13T09:11:53;99520.78;;;15.55;83.45
48053;BME280;33824;51.600;5.718;2023-03-13T09:14:18;99504.19;;;15.58;83.78
48053;BME280;33824;51.600;5.718;2023-03-13T09:16:44;99492.72;;;15.63;83.89
48053;BME280;33824;51.600;5.718;2023-03-13T09:19:12;99508.59;;;15.64;84.28
48053;BME280;33824;51.600;5.718;2023-03-13T09:21:38;99506.63;;;15.60;85.02
48053;BME280;33824;51.600;5.718;2023-03-13T09:24:04;99504.50;;;15.62;85.57
48053;BME280;33824;51.600;5.718;2023-03-13T09:26:29;99502.06;;;15.60;85.19
48053;BME280;33824;51.600;5.718;2023-03-13T09:28:56;99490.03;;;15.63;84.77
48053;BME280;33824;51.600;5.718;2023-03-13T09:31:22;99495.06;;;15.59;84.89
48053;BME280;33824;51.600;5.718;2023-03-13T09:33:49;99485.72;;;15.62;85.20
48053;BME280;33824;51.600;5.718;2023-03-13T09:36:16;99489.56;;;15.66;85.08
48053;BME280;33824;51.600;5.718;2023-03-13T09:38:42;99488.31;;;15.85;84.87
48053;BME280;33824;51.600;5.718;2023-03-13T09:43:46;99462.59;;;16.22;82.23
48053;BME280;33824;51.600;5.718;2023-03-13T09:49:09;99457.06;;;16.29;82.04
48053;BME280;33824;51.600;5.718;2023-03-13T09:51:38;99445.72;;;16.44;81.18
48053;BME280;33824;51.600;5.718;2023-03-13T09:54:21;99429.56;;;16.44;80.05
48053;BME280;33824;51.600;5.718;2023-03-13T09:56:57;99443.63;;;16.62;79.65
48053;BME280;33824;51.600;5.718;2023-03-13T09:59:42;99447.59;;;16.76;78.14
48053;BME280;33824;51.600;5.718;2023-03-13T10:02:20;99423.59;;;16.92;77.03
48053;BME280;33824;51.600;5.718;2023-03-13T10:04:55;99433.13;;;16.83;76.34
48053;BME280;33824;51.600;5.718;2023-03-13T10:07:22;99429.31;;;16.78;76.26
48053;BME280;33824;51.600;5.718;2023-03-13T10:09:47;99409.91;;;16.76;75.88
48053;BME280;33824;51.600;5.718;2023-03-13T10:12:18;99451.78;;;16.67;76.90
48053;BME280;33824;51.600;5.718;2023-03-13T10:15:16;99455.09;;;16.41;76.75
48053;BME280;33824;51.600;5.718;2023-03-13T10:17:45;99434.06;;;16.71;76.41
48053;BME280;33824;51.600;5.718;2023-03-13T10:20:33;99411.59;;;16.61;75.04
48053;BME280;33824;51.600;5.718;2023-03-13T10:23:02;99420.78;;;17.03;74.13
48053;BME280;33824;51.600;5.718;2023-03-13T10:25:35;99415.81;;;16.95;73.17
48053;BME280;33824;51.600;5.718;2023-03-13T10:28:02;99430.91;;;16.96;73.70
48053;BME280;33824;51.600;5.718;2023-03-13T10:30:33;99422.53;;;16.93;73.52
48053;BME280;33824;51.600;5.718;2023-03-13T10:35:34;99411.19;;;16.91;71.88
48053;BME280;33824;51.600;5.718;2023-03-13T10:38:20;99432.69;;;16.69;72.40
48053;BME280;33824;51.600;5.718;2023-03-13T10:41:00;99420.59;;;16.71;73.47
48053;BME280;33824;51.600;5.718;2023-03-13T10:43:27;99402.91;;;16.97;72.49
48053;BME280;33824;51.600;5.718;2023-03-13T10:45:54;99410.38;;;17.12;73.48
48053;BME280;33824;51.600;5.718;2023-03-13T10:48:22;99383.25;;;17.18;71.86
48053;BME280;33824;51.600;5.718;2023-03-13T10:50:51;99399.22;;;17.25;71.14
48053;BME280;33824;51.600;5.718;2023-03-13T10:56:09;99399.34;;;17.13;71.69
48053;BME280;33824;51.600;5.718;2023-03-13T10:58:44;99402.97;;;17.24;71.65
48053;BME280;33824;51.600;5.718;2023-03-13T11:01:23;99376.03;;;17.51;72.02
48053;BME280;33824;51.600;5.718;2023-03-13T11:03:51;99385.13;;;17.66;71.33
48053;BME280;33824;51.600;5.718;2023-03-13T11:06:34;99379.53;;;17.46;71.17
48053;BME280;33824;51.600;5.718;2023-03-13T11:11:55;99370.66;;;17.51;71.27
48053;BME280;33824;51.600;5.718;2023-03-13T11:14:25;99366.31;;;17.71;69.72
48053;BME280;33824;51.600;5.718;2023-03-13T11:16:55;99353.94;;;17.76;68.66
48053;BME280;33824;51.600;5.718;2023-03-13T11:22:06;99368.25;;;17.76;69.07
48053;BME280;33824;51.600;5.718;2023-03-13T11:32:42;99343.72;;;17.51;68.52
48053;BME280;33824;51.600;5.718;2023-03-13T11:35:20;99338.00;;;17.42;67.60
48053;BME280;33824;51.600;5.718;2023-03-13T11:37:50;99338.00;;;17.42;68.12
48053;BME280;33824;51.600;5.718;2023-03-13T11:40:28;99350.63;;;17.15;68.26
48053;BME280;33824;51.600;5.718;2023-03-13T11:48:19;99331.34;;;17.55;65.47
48053;BME280;33824;51.600;5.718;2023-03-13T11:54:11;99339.59;;;17.43;64.99
48053;BME280;33824;51.600;5.718;2023-03-13T11:56:54;99335.38;;;17.52;64.94
48053;BME280;33824;51.600;5.718;2023-03-13T12:02:22;99323.53;;;17.80;65.47
48053;BME280;33824;51.600;5.718;2023-03-13T12:04:54;99305.06;;;17.99;62.87
48053;BME280;33824;51.600;5.718;2023-03-13T12:07:27;99301.88;;;17.70;62.69
48053;BME280;33824;51.600;5.718;2023-03-13T12:10:17;99286.00;;;17.73;62.46
48053;BME280;33824;51.600;5.718;2023-03-13T12:12:51;99297.22;;;17.97;62.27
48053;BME280;33824;51.600;5.718;2023-03-13T12:15:39;99293.91;;;17.85;63.41
48053;BME280;33824;51.600;5.718;2023-03-13T12:21:04;99295.66;;;17.69;65.87
48053;BME280;33824;51.600;5.718;2023-03-13T12:23:52;99281.59;;;17.62;65.80
48053;BME280;33824;51.600;5.718;2023-03-13T12:26:40;99287.56;;;17.38;66.92
48053;BME280;33824;51.600;5.718;2023-03-13T12:32:07;99292.78;;;17.22;66.78
48053;BME280;33824;51.600;5.718;2023-03-13T12:34:42;99289.88;;;17.29;67.16
48053;BME280;33824;51.600;5.718;2023-03-13T12:39:55;99269.72;;;17.05;67.62
48053;BME280;33824;51.600;5.718;2023-03-13T12:42:41;99247.78;;;16.91;67.34
48053;BME280;33824;51.600;5.718;2023-03-13T12:45:19;99242.78;;;17.05;66.07
48053;BME280;33824;51.600;5.718;2023-03-13T12:48:08;99266.41;;;16.98;65.58
48053;BME280;33824;51.600;5.718;2023-03-13T12:51:02;99249.94;;;16.94;66.61
48053;BME280;33824;51.600;5.718;2023-03-13T12:54:01;99234.19;;;17.35;65.06
48053;BME280;33824;51.600;5.718;2023-03-13T12:59:24;99226.53;;;17.53;64.02
48053;BME280;33824;51.600;5.718;2023-03-13T13:01:54;99220.69;;;17.61;63.90
48053;BME280;33824;51.600;5.718;2023-03-13T13:04:29;99243.91;;;17.67;62.47
48053;BME280;33824;51.600;5.718;2023-03-13T13:10:04;99225.47;;;17.96;63.59
48053;BME280;33824;51.600;5.718;2023-03-13T13:15:47;99223.53;;;18.39;61.94
48053;BME280;33824;51.600;5.718;2023-03-13T13:18:27;99227.88;;;18.40;60.75
48053;BME280;33824;51.600;5.718;2023-03-13T13:21:19;99215.53;;;18.02;60.22
48053;BME280;33824;51.600;5.718;2023-03-13T13:23:46;99220.50;;;18.20;59.93
48053;BME280;33824;51.600;5.718;2023-03-13T13:36:53;99199.34;;;18.59;60.83
48053;BME280;33824;51.600;5.718;2023-03-13T13:39:42;99202.38;;;18.10;61.34
48053;BME280;33824;51.600;5.718;2023-03-13T13:44:57;99200.97;;;17.98;62.59
48053;BME280;33824;51.600;5.718;2023-03-13T13:47:25;99208.13;;;18.29;62.40
48053;BME280;33824;51.600;5.718;2023-03-13T13:49:56;99200.31;;;18.33;59.45
48053;BME280;33824;51.600;5.718;2023-03-13T13:52:39;99190.78;;;18.15;60.54
48053;BME280;33824;51.600;5.718;2023-03-13T13:57:48;99162.50;;;18.17;60.12
48053;BME280;33824;51.600;5.718;2023-03-13T14:00:19;99182.53;;;18.37;59.36
48053;BME280;33824;51.600;5.718;2023-03-13T14:02:49;99197.22;;;18.66;59.85
48053;BME280;33824;51.600;5.718;2023-03-13T14:05:24;99188.19;;;18.35;58.41
48053;BME280;33824;51.600;5.718;2023-03-13T14:07:59;99172.25;;;18.29;56.28
48053;BME280;33824;51.600;5.718;2023-03-13T14:10:39;99162.53;;;18.33;56.82
48053;BME280;33824;51.600;5.718;2023-03-13T14:13:17;99156.78;;;18.09;58.04
48053;BME280;33824;51.600;5.718;2023-03-13T14:15:47;99157.63;;;18.19;57.20
48053;BME280;33824;51.600;5.718;2023-03-13T14:18:17;99168.81;;;18.53;58.31